Time;durP1;ratioP1;P1;durP2;ratioP2;P2;SDS_P1;SDS_P2;PMS_P1;PMS_P2;Temp;Humidity;BMP_temperature;BMP_pressure;BME280_temperature;BME280_humidity;BME280_pressure;Samples;Min_cycle;Max_cycle;Signal;HPM_P1;HPM_P2
2023/03/01 00:01:46;;;;;;;155.60;69.10;;;;;;;-1.45;77.19;100415.23;107829;1308;22275;-40
2023/03/01 00:04:11;;;;;;;140.70;67.20;;;;;;;-1.47;76.98;100417.61;107836;1308;22185;-40
2023/03/01 00:06:37;;;;;;;154.00;64.60;;;;;;;-1.51;76.94;100417.23;107843;1308;22103;-40
2023/03/01 00:09:02;;;;;;;135.90;62.30;;;;;;;-1.51;76.54;100417.05;107851;1308;22511;-39
2023/03/01 00:11:31;;;;;;;135.90;60.10;;;;;;;-1.52;76.27;100414.64;107841;1308;22691;-40
2023/03/01 00:14:00;;;;;;;124.20;60.30;;;;;;;-1.58;76.22;100415.60;107693;1308;23009;-40
2023/03/01 00:16:30;;;;;;;141.10;61.30;;;;;;;-1.57;76.12;100416.30;107736;1307;22222;-40
2023/03/01 00:18:56;;;;;;;127.10;60.30;;;;;;;-1.53;75.97;100418.58;107861;1298;22198;-41
2023/03/01 00:21:22;;;;;;;123.60;58.90;;;;;;;-1.52;76.17;100421.16;107837;1308;22820;-40
2023/03/01 00:23:49;;;;;;;137.30;60.20;;;;;;;-1.52;77.02;100422.37;107851;1308;23054;-39
2023/03/01 00:26:15;;;;;;;155.40;66.30;;;;;;;-1.48;77.49;100423.96;107863;1308;22406;-38
2023/03/01 00:28:42;;;;;;;167.70;72.50;;;;;;;-1.42;77.12;100425.41;107822;1308;23330;-38
2023/03/01 00:31:16;;;;;;;159.70;68.70;;;;;;;-1.42;76.63;100423.17;107867;1308;22244;-38
2023/03/01 00:33:42;;;;;;;130.60;59.40;;;;;;;-1.44;76.37;100417.48;107860;1308;22251;-39
2023/03/01 00:36:08;;;;;;;147.30;60.80;;;;;;;-1.43;76.13;100409.77;107822;1308;22398;-39
2023/03/01 00:38:41;;;;;;;134.50;59.20;;;;;;;-1.42;75.96;100407.71;107849;1307;22248;-40
2023/03/01 00:41:14;;;;;;;122.50;56.90;;;;;;;-1.41;75.73;100402.89;107883;1308;22208;-40
2023/03/01 00:43:39;;;;;;;124.90;56.70;;;;;;;-1.43;75.78;100399.25;107862;1308;22378;-39
2023/03/01 00:46:07;;;;;;;108.50;51.10;;;;;;;-1.46;75.78;100398.54;107833;1308;22218;-39
2023/03/01 00:48:33;;;;;;;106.10;49.60;;;;;;;-1.41;75.29;100397.02;107827;1308;22275;-39
2023/03/01 00:51:06;;;;;;;118.50;50.00;;;;;;;-1.41;75.01;100394.28;107874;1308;22367;-39
2023/03/01 00:53:32;;;;;;;120.40;52.60;;;;;;;-1.45;75.13;100391.31;107864;1308;22249;-39
2023/03/01 00:55:58;;;;;;;116.40;54.40;;;;;;;-1.46;75.58;100390.80;107694;1308;22258;-39
2023/03/01 00:58:23;;;;;;;115.20;53.20;;;;;;;-1.48;76.07;100389.91;107859;1308;22405;-39
2023/03/01 01:00:48;;;;;;;108.50;51.70;;;;;;;-1.54;76.32;100394.48;107854;1308;22385;-39
2023/03/01 01:03:14;;;;;;;106.30;49.80;;;;;;;-1.58;76.50;100402.17;107836;1308;23008;-40
2023/03/01 01:05:39;;;;;;;103.90;51.60;;;;;;;-1.59;75.87;100401.30;107818;1308;22307;-41
2023/03/01 01:08:05;;;;;;;123.40;54.10;;;;;;;-1.67;76.68;100400.36;107822;1308;22222;-40
2023/03/01 01:10:30;;;;;;;115.60;51.90;;;;;;;-1.73;77.32;100404.91;107855;1308;22241;-39
2023/03/01 01:12:56;;;;;;;104.20;50.20;;;;;;;-1.73;77.16;100407.67;107804;1308;23067;-39
2023/03/01 01:15:21;;;;;;;109.50;50.10;;;;;;;-1.76;77.38;100406.77;107864;1308;22232;-39
2023/03/01 01:17:46;;;;;;;97.10;47.40;;;;;;;-1.77;77.43;100407.96;107834;1308;22485;-40
2023/03/01 01:20:12;;;;;;;107.50;49.40;;;;;;;-1.76;77.38;100408.16;107842;1308;23031;-40
2023/03/01 01:22:37;;;;;;;105.60;48.80;;;;;;;-1.76;77.76;100402.99;107847;1308;23200;-39
2023/03/01 01:25:03;;;;;;;102.10;49.70;;;;;;;-1.76;77.67;100401.97;107840;1308;22387;-40
2023/03/01 01:27:29;;;;;;;103.50;48.60;;;;;;;-1.76;77.73;100397.84;107842;1308;22237;-40
2023/03/01 01:29:54;;;;;;;99.40;49.10;;;;;;;-1.77;77.57;100393.00;107853;1308;22276;-43
2023/03/01 01:32:20;;;;;;;98.00;46.70;;;;;;;-1.79;77.69;100389.03;107821;1308;22849;-40
2023/03/01 01:34:46;;;;;;;96.90;43.20;;;;;;;-1.76;76.68;100388.72;107851;1307;22244;-39
2023/03/01 01:37:11;;;;;;;95.80;44.50;;;;;;;-1.84;76.94;100392.05;107837;1308;22205;-39
2023/03/01 01:39:37;;;;;;;92.30;42.70;;;;;;;-1.82;75.63;100388.64;107831;1308;22233;-39
2023/03/01 01:42:02;;;;;;;89.40;44.50;;;;;;;-1.89;75.96;100382.53;107861;1308;22230;-39
2023/03/01 01:44:29;;;;;;;96.90;43.70;;;;;;;-1.88;76.81;100380.83;107830;1308;22214;-40
2023/03/01 01:47:04;;;;;;;88.90;43.50;;;;;;;-1.83;76.19;100376.60;107859;1308;22253;-39
2023/03/01 01:49:37;;;;;;;95.00;43.30;;;;;;;-1.82;76.48;100368.54;107850;1308;22217;-40
2023/03/01 01:52:25;;;;;;;97.00;43.30;;;;;;;-1.77;76.73;100359.14;107853;1308;22230;-40
2023/03/01 01:55:05;;;;;;;91.10;43.70;;;;;;;-1.71;76.34;100361.10;107844;1308;22208;-40
2023/03/01 01:57:43;;;;;;;90.90;39.60;;;;;;;-1.66;75.87;100361.51;107897;1308;22237;-40
2023/03/01 02:00:16;;;;;;;75.00;36.10;;;;;;;-1.66;75.21;100358.39;107823;1308;22456;-40
2023/03/01 02:02:44;;;;;;;79.40;35.70;;;;;;;-1.66;75.29;100355.98;107842;1293;22595;-39
2023/03/01 02:05:22;;;;;;;79.80;37.30;;;;;;;-1.64;75.22;100355.84;107821;1308;22214;-40
2023/03/01 02:07:48;;;;;;;80.10;36.90;;;;;;;-1.60;75.13;100355.05;107837;1308;22963;-40
2023/03/01 02:10:15;;;;;;;80.00;38.30;;;;;;;-1.56;74.98;100357.00;107845;1308;22248;-41
2023/03/01 02:12:41;;;;;;;83.80;38.40;;;;;;;-1.53;75.05;100354.09;107843;1308;22324;-39
2023/03/01 02:15:06;;;;;;;86.30;40.70;;;;;;;-1.51;74.45;100344.98;107869;1308;22919;-40
2023/03/01 02:17:32;;;;;;;85.40;38.50;;;;;;;-1.58;74.93;100334.43;107863;1308;22445;-39
2023/03/01 02:20:07;;;;;;;87.70;38.30;;;;;;;-1.63;75.04;100326.63;107839;1308;22429;-39
2023/03/01 02:22:34;;;;;;;82.90;39.40;;;;;;;-1.69;75.22;100318.33;107868;1308;22921;-39
2023/03/01 02:25:18;;;;;;;97.50;46.90;;;;;;;-1.71;75.64;100316.06;107853;1308;22392;-39
2023/03/01 02:27:52;;;;;;;101.30;44.60;;;;;;;-1.73;75.77;100320.33;107852;1307;23039;-40
2023/03/01 02:30:20;;;;;;;95.10;46.00;;;;;;;-1.74;75.97;100323.92;107842;1308;22217;-39
2023/03/01 02:32:47;;;;;;;88.60;40.50;;;;;;;-1.74;75.80;100323.24;107850;1308;22386;-39
2023/03/01 02:35:15;;;;;;;83.90;39.20;;;;;;;-1.81;76.10;100317.16;107855;1308;22702;-39
2023/03/01 02:37:42;;;;;;;101.20;45.70;;;;;;;-1.88;76.22;100314.48;107825;1308;22249;-39
2023/03/01 02:40:13;;;;;;;97.80;42.10;;;;;;;-1.97;76.48;100312.16;107834;1308;22238;-39
2023/03/01 02:42:56;;;;;;;84.80;41.10;;;;;;;-2.06;76.70;100308.27;107840;1308;22298;-39
2023/03/01 02:45:22;;;;;;;89.40;42.80;;;;;;;-2.09;76.52;100309.95;107833;1308;22965;-39
2023/03/01 02:47:49;;;;;;;86.70;43.30;;;;;;;-2.10;76.63;100319.05;107840;1308;22389;-39
2023/03/01 02:50:34;;;;;;;80.80;41.60;;;;;;;-2.10;76.93;100321.28;107831;1308;22228;-39
2023/03/01 02:53:33;;;;;;;85.40;40.50;;;;;;;-2.08;77.80;100319.41;107866;1308;22903;-39
2023/03/01 02:55:59;;;;;;;85.90;41.30;;;;;;;-2.09;77.41;100319.21;107732;1308;136723;-40
2023/03/01 03:00:10;;;;;;;83.70;40.10;;;;;;;-2.10;77.78;100315.77;106608;1310;544948;-38
2023/03/01 03:02:36;;;;;;;85.50;41.00;;;;;;;-2.16;77.27;100317.93;107481;1311;22222;-38
2023/03/01 03:05:17;;;;;;;91.50;41.30;;;;;;;-2.18;77.27;100313.95;107467;1311;22465;-38
2023/03/01 03:07:44;;;;;;;70.50;34.80;;;;;;;-2.21;77.54;100310.98;107490;1311;22281;-38
2023/03/01 03:10:31;;;;;;;71.30;34.30;;;;;;;-2.18;77.11;100309.31;107483;1311;22058;-38
2023/03/01 03:13:03;;;;;;;75.00;36.30;;;;;;;-2.16;76.89;100306.94;107408;1308;148035;-38
2023/03/01 03:15:29;;;;;;;78.70;35.80;;;;;;;-2.18;77.32;100309.15;107680;1308;22301;-39
2023/03/01 03:17:55;;;;;;;72.50;36.30;;;;;;;-2.17;77.23;100310.01;107723;1308;22431;-40
2023/03/01 03:20:23;;;;;;;76.90;36.00;;;;;;;-2.19;77.53;100305.18;107650;1309;22415;-39
2023/03/01 03:22:52;;;;;;;74.70;37.30;;;;;;;-2.23;77.51;100301.19;107658;1294;23000;-39
2023/03/01 03:25:19;;;;;;;74.00;37.20;;;;;;;-2.26;77.85;100305.42;107691;1308;22405;-39
2023/03/01 03:27:46;;;;;;;80.80;38.40;;;;;;;-2.29;77.97;100303.15;107710;1308;22378;-39
2023/03/01 03:30:15;;;;;;;80.10;38.30;;;;;;;-2.30;77.84;100306.58;107700;1308;22924;-39
2023/03/01 03:32:51;;;;;;;76.70;39.30;;;;;;;-2.34;77.98;100308.77;107719;1308;22264;-39
2023/03/01 03:35:18;;;;;;;72.80;37.60;;;;;;;-2.37;78.36;100309.41;107705;1308;22482;-39
2023/03/01 03:38:02;;;;;;;77.40;39.60;;;;;;;-2.39;78.13;100312.31;107714;1308;23073;-39
2023/03/01 03:40:36;;;;;;;79.10;39.00;;;;;;;-2.41;78.17;100311.77;107684;1308;22469;-39
2023/03/01 03:43:03;;;;;;;82.90;41.10;;;;;;;-2.38;78.06;100314.38;107719;1308;22297;-39
2023/03/01 03:45:29;;;;;;;82.90;39.80;;;;;;;-2.35;78.24;100313.91;107699;1308;22344;-39
2023/03/01 03:47:54;;;;;;;93.40;43.80;;;;;;;-2.33;78.51;100313.60;107712;1308;22258;-39
2023/03/01 03:50:19;;;;;;;95.20;44.60;;;;;;;-2.28;78.60;100315.35;107689;1301;22981;-39
2023/03/01 03:52:45;;;;;;;102.90;45.40;;;;;;;-2.24;78.39;100309.23;107709;1308;22482;-39
2023/03/01 03:55:12;;;;;;;92.90;44.10;;;;;;;-2.20;78.25;100309.79;107715;1308;22229;-39
2023/03/01 03:57:39;;;;;;;95.60;44.70;;;;;;;-2.20;78.23;100307.23;107716;1308;22848;-39
2023/03/01 04:00:12;;;;;;;89.90;42.60;;;;;;;-2.18;77.98;100304.34;107715;1308;23160;-39
2023/03/01 04:02:39;;;;;;;99.30;45.00;;;;;;;-2.18;78.09;100304.00;107712;1308;22245;-39
2023/03/01 04:05:04;;;;;;;106.80;46.90;;;;;;;-2.17;78.06;100305.21;107717;1308;22241;-39
2023/03/01 04:07:30;;;;;;;92.50;44.40;;;;;;;-2.15;78.02;100307.99;107729;1308;23401;-40
2023/03/01 04:09:55;;;;;;;101.30;47.00;;;;;;;-2.16;77.72;100302.12;107681;1309;22383;-39
2023/03/01 04:12:22;;;;;;;103.90;48.20;;;;;;;-2.21;78.25;100306.88;107713;1309;22378;-39
2023/03/01 04:14:48;;;;;;;102.30;48.70;;;;;;;-2.26;78.74;100307.49;107717;1309;22321;-39
2023/03/01 04:17:13;;;;;;;99.50;49.10;;;;;;;-2.30;78.99;100303.66;107713;1309;22225;-39
2023/03/01 04:19:38;;;;;;;106.50;47.90;;;;;;;-2.33;78.98;100304.49;107693;1309;23161;-39
2023/03/01 04:22:09;;;;;;;95.40;48.30;;;;;;;-2.38;79.14;100305.96;107699;1309;22677;-39
2023/03/01 04:24:35;;;;;;;107.10;48.00;;;;;;;-2.39;79.62;100309.38;107713;1309;22245;-39
2023/03/01 04:27:00;;;;;;;100.70;48.10;;;;;;;-2.43;80.18;100311.06;107690;1309;22531;-38
2023/03/01 04:29:26;;;;;;;101.80;49.20;;;;;;;-2.46;80.07;100309.80;107684;1309;22249;-39
2023/03/01 04:31:51;;;;;;;102.50;48.70;;;;;;;-2.50;79.90;100309.41;107674;1309;23164;-39
2023/03/01 04:34:16;;;;;;;110.10;49.40;;;;;;;-2.55;80.38;100306.23;107710;1309;22283;-39
2023/03/01 04:36:42;;;;;;;94.70;46.40;;;;;;;-2.58;80.70;100307.07;107716;1309;23238;-39
2023/03/01 04:39:11;;;;;;;104.50;51.20;;;;;;;-2.60;80.83;100306.52;107712;1309;22202;-38
2023/03/01 04:41:38;;;;;;;94.80;45.80;;;;;;;-2.64;81.09;100303.20;107719;1309;22229;-39
2023/03/01 04:44:04;;;;;;;120.00;56.10;;;;;;;-2.63;81.23;100297.89;107715;1309;22413;-39
2023/03/01 04:46:29;;;;;;;110.50;53.30;;;;;;;-2.65;81.24;100293.91;107724;1309;23599;-38
2023/03/01 04:48:55;;;;;;;116.20;56.50;;;;;;;-2.68;81.46;100290.26;107685;1309;22246;-39
2023/03/01 04:51:20;;;;;;;107.30;53.50;;;;;;;-2.72;81.43;100290.02;107684;1309;22585;-39
2023/03/01 04:53:46;;;;;;;106.10;49.80;;;;;;;-2.77;81.71;100290.30;107726;1309;23037;-39
2023/03/01 04:56:13;;;;;;;103.50;48.40;;;;;;;-2.80;81.94;100288.19;107719;1309;22242;-39
2023/03/01 04:58:39;;;;;;;99.70;45.70;;;;;;;-2.81;81.74;100287.84;107739;1309;22613;-39
2023/03/01 05:01:17;;;;;;;101.40;48.40;;;;;;;-2.83;81.83;100284.72;107708;1309;22487;-39
2023/03/01 05:03:43;;;;;;;101.70;54.30;;;;;;;-2.85;81.85;100282.28;107848;1307;22454;-46
2023/03/01 05:06:10;;;;;;;109.80;55.90;;;;;;;-2.85;81.77;100283.48;107829;1307;22203;-41
2023/03/01 05:08:39;;;;;;;128.00;58.40;;;;;;;-2.85;81.45;100287.44;107864;1307;22245;-40
2023/03/01 05:11:05;;;;;;;121.40;57.30;;;;;;;-2.84;81.49;100287.45;107844;1307;22230;-40
2023/03/01 05:13:30;;;;;;;105.30;48.90;;;;;;;-2.78;81.48;100290.63;107847;1307;22226;-40
2023/03/01 05:15:58;;;;;;;109.70;50.50;;;;;;;-2.75;81.23;100286.05;107842;1307;22567;-40
2023/03/01 05:18:28;;;;;;;115.60;50.20;;;;;;;-2.72;81.11;100284.20;107820;1307;23153;-39
2023/03/01 05:20:56;;;;;;;103.90;45.00;;;;;;;-2.70;80.74;100279.77;107838;1307;22234;-40
2023/03/01 05:23:21;;;;;;;;;;;;;;;-2.68;80.73;100275.84;107874;1307;22412;-40
2023/03/01 05:25:47;;;;;;;100.90;43.60;;;;;;;-2.65;80.75;100277.94;107837;1307;22378;-39
2023/03/01 05:28:13;;;;;;;102.20;44.30;;;;;;;-2.65;80.46;100277.59;107857;1307;22380;-39
2023/03/01 05:30:39;;;;;;;96.50;45.10;;;;;;;-2.62;80.36;100281.08;107849;1307;22493;-40
2023/03/01 05:33:12;;;;;;;99.40;44.60;;;;;;;-2.59;80.27;100284.21;107881;1307;22333;-42
2023/03/01 05:35:40;;;;;;;99.80;45.90;;;;;;;-2.57;80.26;100285.10;107520;1307;22237;-40
2023/03/01 05:38:05;;;;;;;98.00;45.70;;;;;;;-2.57;79.86;100284.74;107854;1307;22238;-40
2023/03/01 05:40:33;;;;;;;94.40;45.40;;;;;;;-2.57;79.92;100284.58;107857;1307;22446;-41
2023/03/01 05:42:58;;;;;;;101.70;46.80;;;;;;;-2.58;79.84;100284.55;107871;1307;22467;-39
2023/03/01 05:45:26;;;;;;;104.40;46.30;;;;;;;-2.58;79.79;100276.50;107860;1307;23180;-42
2023/03/01 05:47:53;;;;;;;100.10;48.20;;;;;;;-2.59;79.76;100269.44;107861;1308;22416;-40
2023/03/01 05:50:28;;;;;;;100.90;48.50;;;;;;;-2.57;79.60;100266.22;107848;1307;22294;-40
2023/03/01 05:53:07;;;;;;;109.10;48.60;;;;;;;-2.57;79.66;100264.66;107861;1307;22196;-41
2023/03/01 05:55:34;;;;;;;107.30;50.30;;;;;;;-2.60;79.66;100264.11;107865;1307;22389;-40
2023/03/01 05:58:04;;;;;;;99.20;47.70;;;;;;;-2.62;79.65;100264.77;107856;1307;23205;-41
2023/03/01 06:00:30;;;;;;;107.30;47.60;;;;;;;-2.65;79.89;100258.88;107845;1308;22686;-40
2023/03/01 06:02:56;;;;;;;103.10;47.70;;;;;;;-2.64;79.88;100253.23;107861;1307;22220;-40
2023/03/01 06:05:22;;;;;;;122.00;49.40;;;;;;;-2.61;79.82;100248.83;107860;1307;23084;-39
2023/03/01 06:07:49;;;;;;;131.80;53.20;;;;;;;-2.59;79.58;100246.61;107867;1307;22217;-40
2023/03/01 06:10:19;;;;;;;118.40;50.90;;;;;;;-2.59;79.61;100250.73;107857;1307;22217;-40
2023/03/01 06:12:45;;;;;;;112.20;48.20;;;;;;;-2.57;79.46;100247.66;107874;1308;22426;-39
2023/03/01 06:15:13;;;;;;;125.10;49.50;;;;;;;-2.54;79.34;100251.14;107831;1307;22964;-39
2023/03/01 06:17:40;;;;;;;118.30;50.60;;;;;;;-2.50;79.35;100257.37;107858;1307;22565;-39
2023/03/01 06:20:11;;;;;;;104.20;48.60;;;;;;;-2.47;79.34;100258.27;107851;1307;22934;-39
2023/03/01 06:22:37;;;;;;;100.90;47.50;;;;;;;-2.47;79.35;100262.91;107841;1292;22237;-39
2023/03/01 06:25:03;;;;;;;102.20;48.30;;;;;;;-2.46;79.01;100265.66;107816;1308;22465;-40
2023/03/01 06:27:28;;;;;;;102.50;46.70;;;;;;;-2.39;78.77;100259.58;107822;1307;22391;-39
2023/03/01 06:29:54;;;;;;;94.30;44.60;;;;;;;-2.31;78.58;100257.44;107830;1307;22587;-39
2023/03/01 06:32:19;;;;;;;96.70;45.90;;;;;;;-2.26;78.47;100261.63;107817;1307;22768;-40
2023/03/01 06:34:45;;;;;;;94.20;46.00;;;;;;;-2.19;77.99;100267.04;107837;1307;22236;-39
2023/03/01 06:37:10;;;;;;;83.10;41.70;;;;;;;-2.19;77.99;100274.08;107836;1307;22239;-39
2023/03/01 06:39:36;;;;;;;113.00;52.00;;;;;;;-2.11;77.75;100277.11;107829;1307;22456;-39
2023/03/01 06:42:01;;;;;;;171.60;74.70;;;;;;;-2.09;77.76;100281.25;107837;1308;22220;-39
2023/03/01 06:44:27;;;;;;;118.10;52.00;;;;;;;-2.07;77.59;100293.65;107819;1307;22398;-39
2023/03/01 06:46:53;;;;;;;96.10;43.50;;;;;;;-2.06;77.22;100294.35;107866;1307;22965;-40
2023/03/01 06:49:20;;;;;;;81.00;41.00;;;;;;;-2.02;77.28;100301.44;107848;1308;23061;-40
2023/03/01 06:51:46;;;;;;;101.10;45.70;;;;;;;-2.09;77.03;100300.15;107861;1307;22256;-40
2023/03/01 06:54:12;;;;;;;104.80;45.10;;;;;;;-2.11;77.19;100297.04;107876;1307;23232;-39
2023/03/01 06:56:37;;;;;;;124.20;57.50;;;;;;;-2.05;77.47;100295.04;107824;1307;22247;-40
2023/03/01 06:59:03;;;;;;;142.30;61.00;;;;;;;-1.99;77.50;100291.69;107834;1308;23213;-40
2023/03/01 07:01:29;;;;;;;90.00;43.50;;;;;;;-1.93;77.43;100290.89;107847;1308;22841;-40
2023/03/01 07:03:54;;;;;;;87.30;42.70;;;;;;;-1.83;77.03;100295.12;107848;1308;22197;-39
2023/03/01 07:06:20;;;;;;;114.70;49.80;;;;;;;-1.75;76.85;100295.03;107850;1307;23042;-40
2023/03/01 07:08:45;;;;;;;124.20;57.40;;;;;;;-1.71;76.47;100292.16;107832;1307;22406;-40
2023/03/01 07:11:11;;;;;;;139.00;61.90;;;;;;;-1.64;76.30;100294.30;107823;1307;22233;-40
2023/03/01 07:13:36;;;;;;;145.10;65.10;;;;;;;-1.58;76.12;100291.61;107658;1308;22943;-39
2023/03/01 07:16:01;;;;;;;108.00;50.30;;;;;;;-1.53;76.15;100295.61;107807;1307;22333;-40
2023/03/01 07:18:27;;;;;;;114.70;55.60;;;;;;;-1.50;76.06;100286.54;107848;1308;22242;-40
2023/03/01 07:20:53;;;;;;;129.10;64.60;;;;;;;-1.41;75.70;100282.65;107790;1300;23069;-40
2023/03/01 07:23:18;;;;;;;106.40;53.50;;;;;;;-1.39;75.75;100277.69;107806;1307;22286;-39
2023/03/01 07:25:43;;;;;;;95.50;46.10;;;;;;;-1.36;75.40;100274.95;107821;1307;22247;-40
2023/03/01 07:28:08;;;;;;;100.20;49.60;;;;;;;-1.40;75.72;100270.80;107835;1307;23129;-41
2023/03/01 07:30:34;;;;;;;109.70;47.50;;;;;;;-1.37;76.16;100272.37;107852;1307;22413;-40
2023/03/01 07:32:59;;;;;;;94.30;45.30;;;;;;;-1.33;75.89;100279.64;107844;1307;22358;-40
2023/03/01 07:35:26;;;;;;;88.40;43.90;;;;;;;-1.31;75.91;100281.02;107850;1308;22403;-40
2023/03/01 07:37:51;;;;;;;86.70;43.70;;;;;;;-1.27;75.98;100281.58;107866;1307;23044;-40
2023/03/01 07:40:17;;;;;;;91.40;43.00;;;;;;;-1.18;75.66;100284.06;107843;1308;22234;-40
2023/03/01 07:42:43;;;;;;;80.60;40.10;;;;;;;-1.12;75.76;100285.66;107826;1307;23010;-40
2023/03/01 07:45:08;;;;;;;90.30;40.30;;;;;;;-1.06;75.40;100289.67;107836;1307;23133;-40
2023/03/01 07:47:34;;;;;;;89.60;41.30;;;;;;;-1.04;75.13;100285.21;107856;1307;22470;-40
2023/03/01 07:50:00;;;;;;;96.60;42.50;;;;;;;-1.01;75.31;100285.41;107841;1307;22885;-40
2023/03/01 07:52:26;;;;;;;90.90;43.20;;;;;;;-0.96;75.27;100285.45;107848;1307;22334;-40
2023/03/01 07:54:51;;;;;;;89.10;41.80;;;;;;;-0.92;75.30;100284.79;107830;1307;22980;-40
2023/03/01 07:57:17;;;;;;;91.20;44.70;;;;;;;-0.84;74.95;100278.30;107843;1307;22901;-40
2023/03/01 07:59:42;;;;;;;96.00;45.80;;;;;;;-0.79;75.32;100272.83;107806;1307;22409;-40
2023/03/01 08:02:10;;;;;;;99.00;45.80;;;;;;;-0.72;75.23;100273.56;107818;1307;22402;-40
2023/03/01 08:04:35;;;;;;;93.30;44.60;;;;;;;-0.60;75.36;100273.63;107813;1307;22223;-41
2023/03/01 08:07:00;;;;;;;86.80;42.20;;;;;;;-0.45;75.04;100279.58;107832;1307;22980;-40
2023/03/01 08:09:26;;;;;;;88.90;42.30;;;;;;;-0.34;74.51;100282.89;107794;1307;22217;-41
2023/03/01 08:11:51;;;;;;;85.90;43.00;;;;;;;-0.27;74.58;100287.58;107852;1307;23010;-40
2023/03/01 08:14:16;;;;;;;84.50;40.60;;;;;;;-0.16;74.20;100285.05;107828;1307;23160;-40
2023/03/01 08:16:42;;;;;;;87.20;41.00;;;;;;;-0.09;73.94;100277.84;107813;1307;22370;-40
2023/03/01 08:19:11;;;;;;;89.10;40.50;;;;;;;-0.02;73.87;100272.86;107843;1307;22243;-42
2023/03/01 08:21:37;;;;;;;75.60;38.70;;;;;;;0.11;73.95;100271.02;107796;1307;22267;-42
2023/03/01 08:24:05;;;;;;;67.40;33.70;;;;;;;0.26;73.64;100273.98;107782;1300;22283;-41
2023/03/01 08:26:31;;;;;;;75.80;35.20;;;;;;;0.38;73.04;100277.98;107800;1308;22488;-40
2023/03/01 08:28:56;;;;;;;71.30;34.80;;;;;;;0.50;72.50;100279.04;107760;1307;22557;-40
2023/03/01 08:31:24;;;;;;;62.60;33.00;;;;;;;0.67;72.16;100274.41;107800;1301;23088;-40
2023/03/01 08:33:55;;;;;;;67.80;32.10;;;;;;;0.85;71.70;100275.27;107752;1301;22355;-41
2023/03/01 08:36:29;;;;;;;60.00;27.20;;;;;;;1.08;71.36;100276.30;107825;1301;22274;-40
2023/03/01 08:38:55;;;;;;;63.00;30.00;;;;;;;1.23;69.65;100274.55;107783;1304;23661;-40
2023/03/01 08:41:21;;;;;;;57.00;30.00;;;;;;;1.44;69.51;100268.46;107788;1307;22408;-42
2023/03/01 08:43:46;;;;;;;56.60;27.60;;;;;;;1.76;68.54;100267.33;107557;1304;22231;-41
2023/03/01 08:46:12;;;;;;;67.70;29.20;;;;;;;2.18;67.22;100264.89;107768;1308;22223;-40
2023/03/01 08:48:38;;;;;;;40.40;22.30;;;;;;;2.61;66.03;100265.48;107775;1308;22199;-41
2023/03/01 08:51:08;;;;;;;40.00;20.40;;;;;;;2.95;64.47;100265.39;107777;1308;22512;-40
2023/03/01 08:53:34;;;;;;;35.70;18.60;;;;;;;3.15;62.70;100263.48;107763;1308;23053;-40
2023/03/01 08:56:02;;;;;;;37.70;18.10;;;;;;;3.40;61.29;100261.84;107748;1308;22249;-42
2023/03/01 08:58:28;;;;;;;41.50;18.60;;;;;;;3.56;59.71;100258.22;107770;1308;22271;-41
2023/03/01 09:00:53;;;;;;;38.50;18.40;;;;;;;3.82;61.70;100248.20;107748;1308;22370;-41
2023/03/01 09:03:19;;;;;;;40.00;18.50;;;;;;;3.80;59.37;100243.55;107746;1308;22365;-42
2023/03/01 09:05:45;;;;;;;36.70;17.80;;;;;;;4.05;58.09;100242.36;107754;1301;22543;-40
2023/03/01 09:08:11;;;;;;;48.00;20.10;;;;;;;4.32;57.50;100237.66;107740;1307;22382;-42
2023/03/01 09:10:39;;;;;;;39.60;18.50;;;;;;;4.55;55.12;100226.54;107850;1307;22232;-41
2023/03/01 09:13:05;;;;;;;36.20;17.80;;;;;;;4.81;53.70;100220.73;107844;1307;22212;-41
2023/03/01 09:15:31;;;;;;;36.10;17.60;;;;;;;5.10;52.18;100227.02;107851;1307;22346;-42
2023/03/01 09:17:56;;;;;;;30.40;16.70;;;;;;;5.72;54.18;100230.17;107844;1307;22386;-42
2023/03/01 09:20:21;;;;;;;28.70;16.50;;;;;;;6.15;50.27;100237.31;107869;1307;23055;-41
2023/03/01 09:22:47;;;;;;;33.20;16.00;;;;;;;6.75;49.47;100238.02;107781;1307;22219;-43
2023/03/01 09:25:12;;;;;;;30.90;15.50;;;;;;;7.31;51.40;100242.35;107792;1300;22317;-42
2023/03/01 09:27:37;;;;;;;31.40;16.80;;;;;;;7.46;49.26;100242.29;107762;1307;22379;-42
2023/03/01 09:30:04;;;;;;;26.50;14.10;;;;;;;7.60;45.71;100248.56;107792;1307;22400;-41
2023/03/01 09:32:32;;;;;;;31.20;14.00;;;;;;;7.83;46.04;100247.73;107812;1307;23175;-43
2023/03/01 09:35:03;;;;;;;28.10;16.40;;;;;;;7.70;46.67;100245.30;107761;1308;22400;-41
2023/03/01 09:37:29;;;;;;;25.90;13.30;;;;;;;7.32;47.28;100250.50;107790;1307;23447;-42
2023/03/01 09:39:55;;;;;;;26.90;13.20;;;;;;;6.77;46.82;100253.66;107806;1307;22244;-42
2023/03/01 09:42:21;;;;;;;32.00;14.50;;;;;;;6.31;46.82;100250.02;107815;1300;22252;-40
2023/03/01 09:44:53;;;;;;;25.40;13.30;;;;;;;5.87;48.07;100250.58;107777;1301;22241;-41
2023/03/01 09:47:28;;;;;;;33.10;15.50;;;;;;;5.62;48.37;100250.20;107767;1301;23228;-42
2023/03/01 09:50:12;;;;;;;26.50;13.70;;;;;;;5.42;48.95;100249.91;107786;1308;22212;-42
2023/03/01 09:52:45;;;;;;;28.10;13.90;;;;;;;5.18;48.69;100247.89;107767;1308;22227;-42
2023/03/01 09:55:14;;;;;;;21.30;11.10;;;;;;;5.12;49.12;100245.05;107780;1308;22307;-43
2023/03/01 09:57:53;;;;;;;17.20;10.00;;;;;;;4.87;49.61;100249.12;107804;1301;23160;-42
2023/03/01 10:00:22;;;;;;;24.80;11.00;;;;;;;4.58;49.61;100249.59;107817;1301;22834;-41
2023/03/01 10:03:12;;;;;;;20.00;9.00;;;;;;;4.26;49.29;100244.85;107881;1307;22864;-42
2023/03/01 10:05:47;;;;;;;21.90;10.00;;;;;;;4.08;49.55;100244.23;107854;1307;23251;-41
2023/03/01 10:08:23;;;;;;;19.70;8.10;;;;;;;3.98;49.17;100236.56;107777;1307;22872;-42
2023/03/01 10:10:51;;;;;;;19.80;9.60;;;;;;;3.99;49.27;100236.38;107818;1307;22256;-42
2023/03/01 10:13:25;;;;;;;20.80;9.80;;;;;;;3.93;49.57;100240.27;107834;1301;23176;-42
2023/03/01 10:15:55;;;;;;;18.80;9.40;;;;;;;4.01;49.48;100235.81;107804;1307;23113;-40
2023/03/01 10:18:29;;;;;;;20.60;9.80;;;;;;;3.97;49.14;100231.54;107752;1308;23079;-40
2023/03/01 10:20:59;;;;;;;21.00;10.10;;;;;;;3.77;49.48;100231.61;107868;1307;22891;-40
2023/03/01 10:23:27;;;;;;;18.70;9.20;;;;;;;3.80;49.56;100227.23;107867;1307;22237;-40
2023/03/01 10:26:11;;;;;;;22.70;9.70;;;;;;;3.83;49.13;100223.91;107850;1307;23154;-41
2023/03/01 10:28:57;;;;;;;21.80;10.30;;;;;;;3.91;49.61;100220.00;107774;1307;22250;-40
2023/03/01 10:31:28;;;;;;;24.60;10.90;;;;;;;3.97;49.67;100217.14;107771;1308;22351;-41
2023/03/01 10:33:56;;;;;;;22.70;11.60;;;;;;;4.01;49.02;100217.94;107783;1301;22894;-40
2023/03/01 10:36:22;;;;;;;25.60;11.90;;;;;;;4.03;48.84;100213.40;107820;1301;22980;-42
2023/03/01 10:38:49;;;;;;;27.00;12.50;;;;;;;4.02;48.97;100213.25;107859;1307;22543;-40
2023/03/01 10:41:15;;;;;;;31.50;13.50;;;;;;;4.04;48.70;100211.50;107850;1307;22448;-41
2023/03/01 10:43:55;;;;;;;27.00;12.40;;;;;;;4.07;49.03;100211.45;107810;1307;22922;-41
2023/03/01 10:46:36;;;;;;;29.30;14.00;;;;;;;4.06;49.07;100206.59;107800;1307;22223;-41
2023/03/01 10:49:22;;;;;;;35.70;13.80;;;;;;;4.10;49.00;100202.38;107760;1298;23083;-40
2023/03/01 10:51:52;;;;;;;30.70;14.20;;;;;;;4.14;48.49;100203.88;108036;1294;22207;-42
2023/03/01 10:54:31;;;;;;;48.10;15.40;;;;;;;4.12;48.76;100203.23;108021;1291;22199;-40
2023/03/01 10:57:02;;;;;;;34.30;16.60;;;;;;;4.16;49.74;100203.33;108143;1305;22230;-40
2023/03/01 10:59:36;;;;;;;35.70;16.70;;;;;;;4.12;50.05;100203.04;108175;1305;22424;-41
2023/03/01 11:02:33;;;;;;;28.60;14.00;;;;;;;4.20;49.75;100200.85;108034;1305;22459;-41
2023/03/01 11:05:09;;;;;;;24.40;12.40;;;;;;;4.09;49.39;100192.67;107325;1313;22233;-40
2023/03/01 11:07:56;;;;;;;23.80;10.60;;;;;;;4.15;48.99;100185.12;107347;1313;23182;-41
2023/03/01 11:10:35;;;;;;;25.20;12.20;;;;;;;4.20;47.85;100182.95;107251;1313;22945;-40